Time;durP1;ratioP1;P1;durP2;ratioP2;P2;SDS_P1;SDS_P2;PMS_P1;PMS_P2;Temp;Humidity;BMP_temperature;BMP_pressure;BME280_temperature;BME280_humidity;BME280_pressure;Samples;Min_cycle;Max_cycle;Signal;HPM_P1;HPM_P2
2021/04/22 00:00:58;;;;;;;14.76;9.50;;;;;;;;;;357617;150;861726;-58
2021/04/22 00:02:00;;;;;;;16.05;9.33;;;;;;;;;;361248;147;865828;-58
2021/04/22 00:03:01;;;;;;;38.37;15.61;;;;;;;;;;356420;149;865857;-58
2021/04/22 00:04:03;;;;;;;13.99;9.33;;;;;;;;;;356678;150;858278;-57
2021/04/22 00:05:19;;;;;;;18.03;10.24;;;;;;;;;;359052;147;865203;-58
2021/04/22 00:06:21;;;;;;;15.01;9.98;;;;;;;;;;352894;151;858991;-58
2021/04/22 00:07:23;;;;;;;18.83;10.24;;;;;;;;;;353319;151;858733;-58
2021/04/22 00:08:24;;;;;;;15.11;10.08;;;;;;;;;;351669;151;857359;-58
2021/04/22 00:09:26;;;;;;;16.19;9.89;;;;;;;;;;352404;152;865058;-58
2021/04/22 00:10:30;;;;;;;15.67;9.71;;;;;;;;;;351982;151;866381;-58
2021/04/22 00:11:31;;;;;;;16.21;10.19;;;;;;;;;;351832;152;857492;-58
2021/04/22 00:12:33;;;;;;;15.67;10.35;;;;;;;;;;352246;152;860008;-58
2021/04/22 00:13:35;;;;;;;17.56;10.41;;;;;;;;;;352614;150;857453;-58
2021/04/22 00:14:36;;;;;;;22.67;12.16;;;;;;;;;;352257;153;859872;-58
2021/04/22 00:15:38;;;;;;;15.30;10.54;;;;;;;;;;352281;153;860131;-58
2021/04/22 00:16:40;;;;;;;17.09;10.31;;;;;;;;;;352025;152;857324;-58
2021/04/22 00:17:45;;;;;;;16.15;10.18;;;;;;;;;;352250;153;857783;-58
2021/04/22 00:18:47;;;;;;;16.41;9.92;;;;;;;;;;351072;149;857393;-58
2021/04/22 00:19:48;;;;;;;16.15;10.20;;;;;;;;;;349807;153;857443;-58
2021/04/22 00:20:50;;;;;;;16.35;10.44;;;;;;;;;;351962;150;865098;-58
2021/04/22 00:21:51;;;;;;;15.66;10.21;;;;;;;;;;352717;152;865364;-58
2021/04/22 00:22:53;;;;;;;15.88;9.76;;;;;;;;;;354698;150;857439;-58
2021/04/22 00:23:55;;;;;;;16.32;10.14;;;;;;;;;;351468;151;866280;-58
2021/04/22 00:24:56;;;;;;;16.14;9.71;;;;;;;;;;345874;154;865369;-58
2021/04/22 00:25:58;;;;;;;15.26;9.86;;;;;;;;;;337829;159;859488;-58
2021/04/22 00:26:59;;;;;;;17.13;10.55;;;;;;;;;;338434;156;859120;-58
2021/04/22 00:28:05;;;;;;;16.30;9.79;;;;;;;;;;336873;156;865314;-58
2021/04/22 00:29:06;;;;;;;39.82;18.64;;;;;;;;;;342420;155;857418;-58
2021/04/22 00:30:10;;;;;;;28.97;14.60;;;;;;;;;;340135;157;858066;-58
2021/04/22 00:31:12;;;;;;;21.29;11.79;;;;;;;;;;348935;152;857422;-59
2021/04/22 00:32:15;;;;;;;15.95;10.47;;;;;;;;;;350561;152;866338;-58
2021/04/22 00:33:17;;;;;;;16.05;9.73;;;;;;;;;;345437;155;864907;-58
2021/04/22 00:34:19;;;;;;;12.85;9.49;;;;;;;;;;340056;158;859022;-58
2021/04/22 00:35:20;;;;;;;18.24;10.47;;;;;;;;;;339211;159;857395;-58
2021/04/22 00:36:24;;;;;;;19.20;10.29;;;;;;;;;;345691;155;857625;-58
2021/04/22 00:37:25;;;;;;;14.48;10.17;;;;;;;;;;343052;153;857608;-58
2021/04/22 00:38:27;;;;;;;15.06;9.76;;;;;;;;;;346342;155;859118;-58
2021/04/22 00:39:29;;;;;;;15.65;9.81;;;;;;;;;;344425;155;858552;-58
2021/04/22 00:40:31;;;;;;;13.62;9.96;;;;;;;;;;343091;154;858225;-58
2021/04/22 00:41:32;;;;;;;15.74;9.60;;;;;;;;;;339299;158;857388;-58
2021/04/22 00:42:34;;;;;;;13.89;9.84;;;;;;;;;;340944;156;857510;-58
2021/04/22 00:43:35;;;;;;;15.13;9.19;;;;;;;;;;340573;156;857535;-58
2021/04/22 00:44:37;;;;;;;15.71;9.71;;;;;;;;;;340721;155;861103;-58
2021/04/22 00:45:41;;;;;;;18.56;11.12;;;;;;;;;;347918;152;868589;-58
2021/04/22 00:46:43;;;;;;;18.56;11.58;;;;;;;;;;351103;152;865232;-58
2021/04/22 00:47:44;;;;;;;16.94;10.16;;;;;;;;;;348300;153;858113;-58
2021/04/22 00:48:46;;;;;;;14.03;9.63;;;;;;;;;;350244;152;865078;-58
2021/04/22 00:49:48;;;;;;;14.02;9.96;;;;;;;;;;351384;152;859113;-58
2021/04/22 00:50:50;;;;;;;15.87;9.24;;;;;;;;;;348785;152;857624;-58
2021/04/22 00:51:52;;;;;;;13.09;9.16;;;;;;;;;;351228;152;859749;-59
2021/04/22 00:52:54;;;;;;;13.65;9.05;;;;;;;;;;351513;153;859374;-58
2021/04/22 00:53:56;;;;;;;13.64;9.38;;;;;;;;;;350856;152;857342;-58
2021/04/22 00:54:58;;;;;;;13.73;9.00;;;;;;;;;;350379;153;858377;-58
2021/04/22 00:55:59;;;;;;;13.62;8.92;;;;;;;;;;349879;152;858810;-58
2021/04/22 00:57:01;;;;;;;15.73;9.01;;;;;;;;;;350387;152;859294;-58
2021/04/22 00:58:03;;;;;;;16.82;9.62;;;;;;;;;;349403;153;858090;-58
2021/04/22 00:59:04;;;;;;;13.91;9.61;;;;;;;;;;351136;152;857514;-58
2021/04/22 01:00:07;;;;;;;14.01;9.42;;;;;;;;;;352931;150;857607;-58
2021/04/22 01:01:09;;;;;;;18.20;9.61;;;;;;;;;;350434;153;864983;-58
2021/04/22 01:02:11;;;;;;;15.20;10.01;;;;;;;;;;349950;152;866369;-58
2021/04/22 01:03:13;;;;;;;15.06;9.17;;;;;;;;;;345436;156;857757;-58
2021/04/22 01:04:14;;;;;;;14.05;8.54;;;;;;;;;;349315;152;857584;-58
2021/04/22 01:05:20;;;;;;;14.84;9.63;;;;;;;;;;351547;152;866731;-58
2021/04/22 01:06:23;;;;;;;12.91;9.51;;;;;;;;;;351830;152;857932;-59
2021/04/22 01:07:25;;;;;;;14.09;8.93;;;;;;;;;;361319;147;858873;-58
2021/04/22 01:08:27;;;;;;;13.62;9.34;;;;;;;;;;360929;147;865588;-58
2021/04/22 01:09:28;;;;;;;14.54;9.28;;;;;;;;;;363413;147;859776;-58
2021/04/22 01:10:31;;;;;;;14.31;9.03;;;;;;;;;;358827;148;865083;-58
2021/04/22 01:11:33;;;;;;;14.42;9.20;;;;;;;;;;358985;150;865068;-58
2021/04/22 01:12:34;;;;;;;14.89;9.01;;;;;;;;;;357539;148;857588;-58
2021/04/22 01:13:36;;;;;;;12.89;9.23;;;;;;;;;;363789;148;865982;-58
2021/04/22 01:14:39;;;;;;;15.46;8.94;;;;;;;;;;362312;148;865818;-58
2021/04/22 01:15:40;;;;;;;12.18;8.93;;;;;;;;;;359110;148;860433;-58
2021/04/22 01:16:43;;;;;;;14.50;9.03;;;;;;;;;;359423;150;858497;-58
2021/04/22 01:17:44;;;;;;;14.97;9.73;;;;;;;;;;359205;149;858733;-58
2021/04/22 01:18:46;;;;;;;13.09;9.32;;;;;;;;;;358390;148;857384;-58
2021/04/22 01:19:47;;;;;;;12.30;8.57;;;;;;;;;;358388;149;866757;-58
2021/04/22 01:20:52;;;;;;;14.03;9.38;;;;;;;;;;352591;150;866491;-58
2021/04/22 01:21:54;;;;;;;17.40;9.24;;;;;;;;;;349300;152;859038;-58
2021/04/22 01:22:56;;;;;;;13.69;9.19;;;;;;;;;;356012;148;857955;-58
2021/04/22 01:23:57;;;;;;;12.32;9.73;;;;;;;;;;356999;147;859112;-58
2021/04/22 01:24:59;;;;;;;13.46;9.45;;;;;;;;;;358940;150;857643;-58
2021/04/22 01:26:00;;;;;;;12.84;10.04;;;;;;;;;;359167;148;856919;-58
2021/04/22 01:27:03;;;;;;;13.89;8.72;;;;;;;;;;358176;148;865115;-58
2021/04/22 01:28:05;;;;;;;14.43;9.23;;;;;;;;;;360812;148;859335;-58
2021/04/22 01:29:06;;;;;;;13.01;9.23;;;;;;;;;;359039;148;857285;-58
2021/04/22 01:30:10;;;;;;;13.59;8.78;;;;;;;;;;355391;150;857650;-58
2021/04/22 01:31:11;;;;;;;12.58;9.12;;;;;;;;;;360697;147;857652;-58
2021/04/22 01:32:13;;;;;;;13.11;9.01;;;;;;;;;;358196;148;859101;-58
2021/04/22 01:33:15;;;;;;;13.77;8.79;;;;;;;;;;359359;150;858503;-58
2021/04/22 01:34:16;;;;;;;12.12;8.89;;;;;;;;;;359313;148;857465;-58
2021/04/22 01:35:19;;;;;;;11.68;9.11;;;;;;;;;;359794;148;857287;-58
2021/04/22 01:36:22;;;;;;;17.55;9.57;;;;;;;;;;360969;147;857525;-58
2021/04/22 01:37:23;;;;;;;14.12;9.01;;;;;;;;;;360196;147;857779;-58
2021/04/22 01:38:25;;;;;;;12.29;9.27;;;;;;;;;;357078;150;865124;-58
2021/04/22 01:39:27;;;;;;;12.04;8.96;;;;;;;;;;359208;148;865005;-58
2021/04/22 01:40:29;;;;;;;14.33;8.81;;;;;;;;;;357525;148;865032;-58
2021/04/22 01:41:30;;;;;;;11.59;8.87;;;;;;;;;;355048;150;857197;-58
2021/04/22 01:42:32;;;;;;;13.89;8.69;;;;;;;;;;360737;148;859896;-58
2021/04/22 01:43:34;;;;;;;14.62;8.81;;;;;;;;;;362080;147;865121;-58
2021/04/22 01:44:36;;;;;;;14.85;8.86;;;;;;;;;;365852;147;866666;-58
2021/04/22 01:45:38;;;;;;;16.14;8.78;;;;;;;;;;359201;148;866529;-58
2021/04/22 02:05:34;;;;;;;10.40;7.87;;;;;;;7.29;64.57;99715.36;372819;142;881617;-59
2021/04/22 02:06:37;;;;;;;10.92;7.68;;;;;;;7.19;64.62;99729.08;365267;146;857642;-59
2021/04/22 02:07:39;;;;;;;11.61;8.67;;;;;;;7.19;64.85;99723.92;366088;146;857208;-59
2021/04/22 02:08:40;;;;;;;12.64;8.39;;;;;;;7.19;64.59;99726.50;363306;147;859227;-59
2021/04/22 02:09:42;;;;;;;11.64;8.33;;;;;;;7.18;64.35;99725.66;366201;145;866088;-59
2021/04/22 02:10:44;;;;;;;14.71;8.32;;;;;;;7.19;64.22;99732.52;366272;147;857332;-58
2021/04/22 02:11:46;;;;;;;11.31;8.28;;;;;;;7.19;64.42;99735.09;360839;145;859408;-59
2021/04/22 02:12:49;;;;;;;10.89;8.40;;;;;;;7.20;64.49;99731.67;365817;146;865112;-58
2021/04/22 02:13:51;;;;;;;11.46;8.30;;;;;;;7.20;64.30;99731.67;366311;146;857369;-58
2021/04/22 02:14:53;;;;;;;13.36;9.07;;;;;;;7.18;64.19;99732.50;365457;146;865000;-59
2021/04/22 02:15:54;;;;;;;13.80;9.46;;;;;;;7.16;64.36;99727.36;366140;147;865144;-58
2021/04/22 02:16:57;;;;;;;10.83;8.53;;;;;;;7.15;64.56;99733.38;363960;147;865106;-58
2021/04/22 02:17:58;;;;;;;11.41;9.05;;;;;;;7.14;64.31;99731.66;366783;145;858930;-58
2021/04/22 02:19:00;;;;;;;12.39;9.03;;;;;;;7.12;64.52;99730.79;367717;146;857547;-58
2021/04/22 02:20:06;;;;;;;12.43;8.47;;;;;;;7.12;64.71;99729.06;364896;146;859548;-58
2021/04/22 02:21:07;;;;;;;12.83;8.91;;;;;;;7.12;64.54;99731.63;365403;146;857256;-58
2021/04/22 02:22:09;;;;;;;13.30;9.05;;;;;;;7.11;64.62;99737.64;366616;146;858303;-58
2021/04/22 02:23:13;;;;;;;13.21;9.02;;;;;;;7.14;64.75;99731.66;364152;146;857204;-58
2021/04/22 02:24:16;;;;;;;19.87;12.51;;;;;;;7.14;64.74;99729.92;357497;150;864863;-58
2021/04/22 02:25:20;;;;;;;27.20;15.56;;;;;;;7.17;64.64;99729.09;359163;147;857313;-58
2021/04/22 02:26:23;;;;;;;17.67;10.34;;;;;;;7.17;64.41;99734.23;358996;147;865024;-58
2021/04/22 02:27:25;;;;;;;16.12;10.05;;;;;;;7.15;64.13;99734.22;357714;149;858620;-58
2021/04/22 02:28:27;;;;;;;16.66;9.79;;;;;;;7.14;64.04;99732.50;359509;147;857903;-59
2021/04/22 02:29:28;;;;;;;12.93;9.92;;;;;;;7.14;64.20;99737.64;354123;147;859050;-58
2021/04/22 02:30:33;;;;;;;13.55;9.72;;;;;;;7.12;64.34;99733.36;359599;148;865657;-58
2021/04/22 02:31:34;;;;;;;14.55;9.40;;;;;;;7.11;64.53;99739.38;358522;147;865024;-59
2021/04/22 02:32:36;;;;;;;13.83;8.79;;;;;;;7.09;64.71;99731.63;347273;151;857349;-58
2021/04/22 02:33:38;;;;;;;11.99;9.15;;;;;;;7.10;64.76;99735.08;356820;147;865078;-58
2021/04/22 02:34:40;;;;;;;12.33;9.37;;;;;;;7.09;64.57;99735.94;363236;147;865013;-59
2021/04/22 02:35:43;;;;;;;13.74;9.36;;;;;;;7.08;64.69;99736.78;361364;147;865079;-59
2021/04/22 02:36:45;;;;;;;12.07;9.27;;;;;;;7.07;64.86;99735.91;359430;147;864975;-59
2021/04/22 02:37:47;;;;;;;11.84;8.92;;;;;;;7.07;64.85;99741.06;358835;150;859144;-59
2021/04/22 02:38:48;;;;;;;14.25;9.30;;;;;;;;;;352144;150;864988;-59
2021/04/22 02:39:50;;;;;;;12.56;8.89;;;;;;;;;;353987;150;859335;-59
2021/04/22 02:40:51;;;;;;;13.97;9.28;;;;;;;;;;361485;147;858590;-59
2021/04/22 02:41:53;;;;;;;15.79;10.62;;;;;;;;;;363081;147;865736;-58
2021/04/22 02:42:55;;;;;;;15.26;9.27;;;;;;;;;;360126;147;865583;-58
2021/04/22 02:43:57;;;;;;;13.29;9.29;;;;;;;;;;361150;148;866856;-58
2021/04/22 02:44:58;;;;;;;14.80;9.52;;;;;;;;;;359695;147;857626;-58
2021/04/22 02:46:00;;;;;;;12.32;9.08;;;;;;;;;;354601;147;859388;-58
2021/04/22 02:47:02;;;;;;;13.54;9.67;;;;;;;;;;357417;147;858700;-59
2021/04/22 02:48:04;;;;;;;14.15;10.02;;;;;;;;;;358545;147;858144;-58
2021/04/22 02:49:05;;;;;;;13.38;9.77;;;;;;;;;;357517;148;865062;-58
2021/04/22 02:50:09;;;;;;;13.15;9.66;;;;;;;;;;361404;147;857269;-58
2021/04/22 02:51:10;;;;;;;14.87;10.13;;;;;;;;;;359809;148;858938;-57
2021/04/22 02:52:12;;;;;;;16.11;10.64;;;;;;;;;;356754;150;866218;-58
2021/04/22 02:53:14;;;;;;;14.76;10.23;;;;;;;;;;363970;147;857213;-58
2021/04/22 02:54:15;;;;;;;14.19;9.58;;;;;;;;;;363796;147;865010;-58
2021/04/22 02:55:17;;;;;;;16.24;9.71;;;;;;;;;;359126;147;857502;-58
2021/04/22 02:56:20;;;;;;;14.14;9.41;;;;;;;;;;358844;149;866072;-58
2021/04/22 02:57:22;;;;;;;12.57;9.05;;;;;;;;;;359939;147;857331;-58
2021/04/22 02:58:24;;;;;;;14.44;9.79;;;;;;;;;;359218;147;863596;-58
2021/04/22 02:59:26;;;;;;;14.49;10.11;;;;;;;;;;359245;148;865216;-58
2021/04/22 03:00:29;;;;;;;16.63;10.16;;;;;;;;;;356535;149;858212;-58
2021/04/22 03:01:31;;;;;;;13.19;9.11;;;;;;;;;;347111;151;857296;-58
2021/04/22 03:02:32;;;;;;;13.07;9.45;;;;;;;;;;352804;150;865665;-58
2021/04/22 03:03:34;;;;;;;14.86;9.40;;;;;;;;;;356228;147;865191;-58
2021/04/22 03:04:35;;;;;;;14.39;10.11;;;;;;;;;;360346;147;864980;-57
2021/04/22 03:05:37;;;;;;;13.56;9.41;;;;;;;;;;359352;149;859234;-58
2021/04/22 03:06:40;;;;;;;13.82;9.67;;;;;;;;;;358999;147;858380;-58
2021/04/22 03:07:42;;;;;;;13.60;9.54;;;;;;;;;;364583;147;857658;-60
2021/04/22 03:08:43;;;;;;;15.16;10.13;;;;;;;;;;352318;151;863482;-60
2021/04/22 03:09:45;;;;;;;12.15;9.19;;;;;;;;;;358979;147;857848;-60
2021/04/22 03:10:47;;;;;;;12.58;8.84;;;;;;;;;;359433;147;859388;-60
2021/04/22 03:11:48;;;;;;;15.72;9.70;;;;;;;;;;356761;147;858105;-60
2021/04/22 03:12:50;;;;;;;12.91;9.65;;;;;;;;;;361957;147;865040;-60
2021/04/22 03:13:51;;;;;;;13.01;9.76;;;;;;;;;;354261;147;861819;-60
2021/04/22 03:14:53;;;;;;;14.55;10.05;;;;;;;;;;359339;147;857894;-60
2021/04/22 03:15:55;;;;;;;13.61;9.64;;;;;;;;;;360124;147;866844;-60
2021/04/22 03:16:56;;;;;;;13.47;9.89;;;;;;;;;;355512;147;866050;-60
2021/04/22 03:17:58;;;;;;;13.56;9.67;;;;;;;;;;359406;147;865679;-60
2021/04/22 03:19:00;;;;;;;15.36;9.92;;;;;;;;;;359528;148;865865;-60
2021/04/22 03:20:02;;;;;;;14.37;10.46;;;;;;;;;;359056;147;864254;-60
2021/04/22 03:21:04;;;;;;;15.80;10.24;;;;;;;;;;359258;147;867434;-60
2021/04/22 03:22:06;;;;;;;13.50;10.63;;;;;;;;;;358822;150;858775;-60
2021/04/22 03:23:07;;;;;;;13.11;10.29;;;;;;;;;;359154;147;858121;-59
2021/04/22 03:24:09;;;;;;;15.84;9.82;;;;;;;;;;361165;147;859987;-60
2021/04/22 03:25:11;;;;;;;14.50;10.29;;;;;;;;;;361149;147;865411;-58
2021/04/22 03:26:13;;;;;;;13.66;9.78;;;;;;;;;;359013;147;865558;-60
2021/04/22 03:27:15;;;;;;;13.84;10.44;;;;;;;;;;359449;147;858133;-58
2021/04/22 03:28:17;;;;;;;12.99;9.79;;;;;;;;;;356580;150;866039;-57
2021/04/22 03:29:18;;;;;;;15.30;9.64;;;;;;;;;;352025;151;856515;-60
2021/04/22 03:30:22;;;;;;;11.71;9.01;;;;;;;;;;353219;151;856276;-58
2021/04/22 03:31:24;;;;;;;12.73;9.35;;;;;;;;;;351630;151;863837;-58
2021/04/22 03:32:26;;;;;;;13.24;10.23;;;;;;;;;;361169;147;856088;-58
2021/04/22 03:33:28;;;;;;;15.16;10.19;;;;;;;;;;359283;149;856651;-58
2021/04/22 03:34:29;;;;;;;13.04;9.76;;;;;;;;;;354555;150;863916;-58
2021/04/22 03:35:31;;;;;;;15.27;9.69;;;;;;;;;;359303;147;863804;-58
2021/04/22 03:36:34;;;;;;;12.98;10.35;;;;;;;;;;358342;149;856287;-58
2021/04/22 03:37:36;;;;;;;12.36;9.22;;;;;;;;;;356484;147;856208;-58
2021/04/22 03:38:37;;;;;;;15.09;10.25;;;;;;;;;;359237;147;859045;-58
2021/04/22 03:39:39;;;;;;;16.54;10.62;;;;;;;;;;360391;147;864492;-58
2021/04/22 03:40:42;;;;;;;12.54;8.89;;;;;;;;;;357453;147;856235;-58
2021/04/22 03:41:43;;;;;;;17.57;9.81;;;;;;;;;;359858;148;856213;-58
2021/04/22 03:42:45;;;;;;;12.52;9.59;;;;;;;;;;359578;147;856344;-59
2021/04/22 03:45:29;;;;;;;15.43;9.74;;;;;;;7.02;65.56;99763.36;403430;130;966846;-59
2021/04/22 03:46:33;;;;;;;13.86;9.81;;;;;;;6.93;65.44;99764.20;398056;135;857189;-59
2021/04/22 03:47:35;;;;;;;13.73;10.55;;;;;;;6.93;65.45;99764.20;391009;135;865079;-58
2021/04/22 03:48:36;;;;;;;12.39;9.27;;;;;;;6.95;65.50;99765.06;391081;135;857760;-59
2021/04/22 03:49:38;;;;;;;14.06;9.19;;;;;;;6.95;65.35;99767.64;393815;135;857218;-59
2021/04/22 03:50:41;;;;;;;15.21;9.37;;;;;;;6.97;65.45;99771.08;390889;135;865039;-59
2021/04/22 03:51:43;;;;;;;14.48;9.04;;;;;;;7.00;65.54;99775.36;394908;135;866279;-59
2021/04/22 03:52:45;;;;;;;14.56;9.36;;;;;;;7.03;65.54;99775.38;396957;134;865086;-59
2021/04/22 03:53:47;;;;;;;13.63;9.14;;;;;;;7.09;65.49;99766.83;394425;135;868166;-59
2021/04/22 03:54:48;;;;;;;14.42;9.84;;;;;;;7.13;65.36;99777.12;394024;134;859458;-59
2021/04/22 03:55:51;;;;;;;12.64;9.39;;;;;;;7.17;65.27;99780.58;397310;135;866522;-59
2021/04/22 03:56:53;;;;;;;14.19;9.21;;;;;;;7.22;65.26;99770.28;389497;135;866927;-59
2021/04/22 03:57:54;;;;;;;12.20;8.87;;;;;;;7.25;65.20;99778.02;397932;134;857473;-59
2021/04/22 03:58:56;;;;;;;12.92;9.47;;;;;;;7.28;65.13;99783.17;395390;135;865051;-59
2021/04/22 03:59:58;;;;;;;16.61;10.17;;;;;;;7.32;65.08;99777.17;394453;135;857869;-58
2021/04/22 04:01:01;;;;;;;13.49;8.79;;;;;;;7.36;64.97;99783.21;395701;134;865234;-58
2021/04/22 04:02:03;;;;;;;13.41;9.84;;;;;;;7.39;64.97;99789.21;388774;133;857353;-60
2021/04/22 04:03:05;;;;;;;11.86;9.11;;;;;;;7.43;64.96;99793.55;393235;135;865598;-58
2021/04/22 04:04:07;;;;;;;12.87;9.27;;;;;;;7.47;64.77;99786.67;388909;137;857783;-58
2021/04/22 04:05:09;;;;;;;12.24;9.64;;;;;;;7.52;64.72;99795.27;387148;138;860273;-58
2021/04/22 04:06:11;;;;;;;13.55;8.84;;;;;;;7.56;64.66;99796.98;385747;135;867438;-58
2021/04/22 04:07:14;;;;;;;14.69;9.94;;;;;;;7.61;64.57;99797.02;386527;137;865091;-58
2021/04/22 04:08:16;;;;;;;17.49;10.43;;;;;;;7.65;64.53;99795.28;388287;138;865011;-58
2021/04/22 04:09:18;;;;;;;15.13;9.79;;;;;;;7.68;64.51;99806.47;389749;135;857293;-58
2021/04/22 04:10:20;;;;;;;15.29;10.32;;;;;;;7.69;64.51;99803.04;385253;138;859199;-58
2021/04/22 04:11:22;;;;;;;15.12;9.49;;;;;;;7.71;64.53;99803.90;387436;137;858925;-58
2021/04/22 04:12:24;;;;;;;15.94;10.71;;;;;;;7.73;64.58;99809.04;389246;136;866805;-58
2021/04/22 04:13:26;;;;;;;12.73;10.01;;;;;;;;;;389384;137;866358;-58
2021/04/22 04:14:27;;;;;;;12.96;9.36;;;;;;;;;;389276;135;859123;-59
2021/04/22 04:15:29;;;;;;;16.74;10.38;;;;;;;;;;389891;136;867747;-58
2021/04/22 04:16:31;;;;;;;15.39;9.61;;;;;;;;;;389513;138;861773;-59
2021/04/22 04:17:32;;;;;;;13.90;9.55;;;;;;;;;;388559;135;857321;-59
2021/04/22 04:18:34;;;;;;;14.77;8.98;;;;;;;;;;388965;136;860051;-59
2021/04/22 04:19:36;;;;;;;14.06;8.92;;;;;;;;;;386354;138;865057;-58
2021/04/22 04:20:38;;;;;;;11.81;9.25;;;;;;;;;;389473;135;857827;-59
2021/04/22 04:21:39;;;;;;;13.21;9.72;;;;;;;;;;386706;138;857179;-58
2021/04/22 04:22:41;;;;;;;14.12;9.31;;;;;;;;;;388365;135;865937;-58
2021/04/22 04:23:42;;;;;;;12.72;9.13;;;;;;;;;;390136;135;858112;-58
2021/04/22 04:24:44;;;;;;;12.96;9.17;;;;;;;;;;389121;137;865023;-58
2021/04/22 04:25:46;;;;;;;15.53;9.90;;;;;;;;;;388802;135;857877;-58
2021/04/22 04:26:47;;;;;;;11.10;8.71;;;;;;;;;;389588;136;857278;-58
2021/04/22 04:27:49;;;;;;;14.59;9.42;;;;;;;;;;383010;138;865501;-58
2021/04/22 04:28:50;;;;;;;15.99;10.19;;;;;;;;;;389612;135;865544;-57
2021/04/22 04:29:52;;;;;;;12.73;9.14;;;;;;;;;;389082;137;865051;-59
2021/04/22 04:30:54;;;;;;;11.80;9.31;;;;;;;;;;387800;138;866207;-58
2021/04/22 04:31:56;;;;;;;14.60;9.18;;;;;;;;;;387096;135;859249;-58
2021/04/22 04:32:58;;;;;;;12.34;9.29;;;;;;;;;;388515;137;860289;-58
2021/04/22 04:33:59;;;;;;;14.53;10.05;;;;;;;;;;388911;137;865825;-58
2021/04/22 04:35:01;;;;;;;13.84;9.20;;;;;;;;;;384143;136;857241;-58
2021/04/22 04:36:03;;;;;;;13.14;9.36;;;;;;;;;;383155;138;860310;-58
2021/04/22 04:37:05;;;;;;;15.77;9.85;;;;;;;;;;387865;136;866614;-58
2021/04/22 04:38:06;;;;;;;12.90;9.78;;;;;;;;;;389353;137;858884;-58
2021/04/22 04:39:08;;;;;;;13.41;9.12;;;;;;;;;;389404;138;865569;-58
2021/04/22 04:40:11;;;;;;;13.07;9.69;;;;;;;;;;390044;136;857376;-58
2021/04/22 04:41:12;;;;;;;12.81;10.38;;;;;;;;;;392129;137;856506;-59
2021/04/22 04:42:14;;;;;;;12.86;9.55;;;;;;;;;;391939;137;857131;-58
2021/04/22 04:43:16;;;;;;;14.06;10.24;;;;;;;;;;389036;136;857386;-58
2021/04/22 04:44:17;;;;;;;15.09;10.13;;;;;;;;;;389278;137;859651;-58
2021/04/22 04:45:19;;;;;;;17.56;10.46;;;;;;;;;;387670;137;866464;-58
2021/04/22 04:46:21;;;;;;;17.79;10.42;;;;;;;;;;385663;138;865942;-58
2021/04/22 04:47:22;;;;;;;13.43;9.58;;;;;;;;;;388756;138;858293;-58
2021/04/22 04:48:24;;;;;;;14.74;10.01;;;;;;;;;;388165;136;865556;-58
2021/04/22 04:49:26;;;;;;;17.62;10.09;;;;;;;;;;389256;137;857883;-58
2021/04/22 04:50:28;;;;;;;17.93;10.45;;;;;;;;;;389520;137;865206;-58
2021/04/22 04:51:29;;;;;;;16.41;9.70;;;;;;;;;;387760;136;857197;-58
2021/04/22 04:52:31;;;;;;;13.38;9.42;;;;;;;;;;388657;137;859950;-58
2021/04/22 04:53:32;;;;;;;17.73;9.81;;;;;;;;;;386167;135;857399;-59
2021/04/22 04:54:34;;;;;;;17.79;10.99;;;;;;;;;;389435;136;865696;-58
2021/04/22 04:55:35;;;;;;;12.28;9.30;;;;;;;;;;386430;135;865649;-58
2021/04/22 04:56:37;;;;;;;15.39;8.50;;;;;;;;;;387384;137;865109;-58
2021/04/22 04:57:39;;;;;;;13.67;9.37;;;;;;;;;;387041;138;857280;-58
2021/04/22 04:58:41;;;;;;;13.22;9.25;;;;;;;;;;383586;137;863768;-58
2021/04/22 04:59:42;;;;;;;14.39;9.22;;;;;;;;;;388084;136;856078;-58
2021/04/22 05:00:44;;;;;;;16.02;9.61;;;;;;;;;;385779;137;856262;-58
2021/04/22 05:01:46;;;;;;;11.09;7.50;;;;;;;;;;387361;136;867181;-58
2021/04/22 05:02:47;;;;;;;14.65;9.71;;;;;;;;;;388794;135;866668;-58
2021/04/22 05:03:49;;;;;;;11.54;7.91;;;;;;;;;;379545;139;858983;-58
2021/04/22 05:04:51;;;;;;;14.51;9.49;;;;;;;;;;379401;138;858512;-58
2021/04/22 05:05:52;;;;;;;13.44;8.24;;;;;;;;;;383695;138;860290;-59
2021/04/22 05:06:54;;;;;;;12.70;8.58;;;;;;;;;;386723;138;858486;-58
2021/04/22 05:07:56;;;;;;;14.11;7.74;;;;;;;;;;387830;137;865069;-58
2021/04/22 05:08:57;;;;;;;16.06;9.71;;;;;;;;;;389247;137;857817;-58
2021/04/22 05:09:59;;;;;;;14.00;9.81;;;;;;;;;;389068;137;866534;-58
2021/04/22 05:11:01;;;;;;;10.20;7.39;;;;;;;;;;389097;137;864116;-58
2021/04/22 05:12:03;;;;;;;12.03;8.49;;;;;;;;;;385248;137;865154;-58
2021/04/22 05:13:05;;;;;;;19.85;9.67;;;;;;;;;;389907;137;866834;-58
2021/04/22 05:14:06;;;;;;;9.55;6.68;;;;;;;;;;388114;138;860030;-58
2021/04/22 05:15:08;;;;;;;14.39;8.59;;;;;;;;;;387409;137;858411;-58
2021/04/22 05:16:12;;;;;;;17.18;9.79;;;;;;;;;;387276;137;864908;-58
2021/04/22 05:17:13;;;;;;;14.60;10.01;;;;;;;;;;387779;137;858162;-59
2021/04/22 05:18:15;;;;;;;14.26;9.51;;;;;;;;;;388017;136;865499;-58
2021/04/22 05:19:17;;;;;;;14.68;10.08;;;;;;;;;;389170;137;857351;-58
2021/04/22 05:20:18;;;;;;;13.41;8.29;;;;;;;;;;383442;137;864947;-58
2021/04/22 05:21:20;;;;;;;10.58;8.03;;;;;;;;;;383520;136;857726;-58
2021/04/22 05:22:21;;;;;;;11.78;7.63;;;;;;;;;;384999;137;864302;-59
2021/04/22 05:23:23;;;;;;;10.10;8.13;;;;;;;;;;383660;137;858553;-58
2021/04/22 05:24:25;;;;;;;11.74;7.86;;;;;;;;;;385203;137;856386;-58
2021/04/22 05:25:26;;;;;;;10.32;6.03;;;;;;;;;;384099;137;856448;-58
2021/04/22 05:26:29;;;;;;;13.47;8.07;;;;;;;;;;383226;136;857061;-59
2021/04/22 05:27:30;;;;;;;13.63;8.67;;;;;;;;;;383309;137;856572;-59
2021/04/22 05:28:32;;;;;;;12.07;8.51;;;;;;;;;;383791;136;856431;-59
2021/04/22 05:29:34;;;;;;;10.43;7.92;;;;;;;;;;384537;136;856325;-59
2021/04/22 05:30:36;;;;;;;12.69;7.72;;;;;;;;;;385422;137;856784;-58
2021/04/22 05:31:38;;;;;;;11.68;7.99;;;;;;;;;;387505;136;856663;-58
2021/04/22 05:32:39;;;;;;;10.77;7.14;;;;;;;;;;385672;137;856184;-58
2021/04/22 05:33:41;;;;;;;9.94;7.63;;;;;;;;;;378772;140;864059;-58
2021/04/22 05:34:42;;;;;;;11.61;8.45;;;;;;;;;;384506;136;856728;-58
2021/04/22 05:35:44;;;;;;;11.00;8.21;;;;;;;;;;385553;137;863872;-59
2021/04/22 05:36:46;;;;;;;8.21;5.67;;;;;;;;;;386545;137;863839;-59
2021/04/22 05:37:48;;;;;;;12.49;8.15;;;;;;;;;;388148;136;856102;-59
2021/04/22 05:38:49;;;;;;;12.79;8.76;;;;;;;;;;385227;137;856767;-59
2021/04/22 05:39:51;;;;;;;13.21;7.21;;;;;;;;;;386947;136;858614;-59
2021/04/22 05:40:52;;;;;;;6.91;5.51;;;;;;;;;;389549;135;856932;-60
2021/04/22 05:41:56;;;;;;;11.19;9.18;;;;;;;;;;384602;137;863917;-59
2021/04/22 05:42:57;;;;;;;10.71;8.38;;;;;;;;;;379528;138;856616;-59
2021/04/22 05:45:14;;;;;;;10.04;6.76;;;;;;;11.17;56.67;99831.48;371856;141;867807;-60
2021/04/22 05:46:18;;;;;;;10.19;7.67;;;;;;;11.15;56.61;99841.00;362757;146;856267;-59
2021/04/22 05:47:20;;;;;;;10.39;7.98;;;;;;;11.17;56.59;99834.91;364021;146;857543;-60
2021/04/22 05:48:21;;;;;;;9.51;7.26;;;;;;;11.28;57.30;99829.61;364629;146;856999;-59
2021/04/22 05:49:23;;;;;;;13.72;8.32;;;;;;;11.35;57.11;99832.96;365802;146;863982;-59
2021/04/22 05:50:25;;;;;;;10.90;7.70;;;;;;;11.44;57.08;99837.18;363671;146;863901;-60
2021/04/22 05:51:27;;;;;;;12.50;7.50;;;;;;;11.53;56.55;99837.89;365089;146;856207;-60
2021/04/22 05:52:29;;;;;;;10.51;7.54;;;;;;;11.64;56.85;99839.48;365728;146;864416;-60
2021/04/22 05:53:31;;;;;;;9.71;6.62;;;;;;;11.73;55.95;99838.51;365265;146;863838;-59
2021/04/22 05:54:32;;;;;;;10.91;7.15;;;;;;;11.76;55.24;99831.55;364798;146;863802;-60
2021/04/22 05:55:34;;;;;;;11.52;8.06;;;;;;;11.80;55.21;99837.53;364064;146;864048;-59
2021/04/22 05:56:37;;;;;;;9.35;6.47;;;;;;;11.85;55.00;99796.81;364679;146;863782;-59
2021/04/22 05:57:39;;;;;;;10.30;6.84;;;;;;;11.85;55.00;99796.81;364366;146;857351;-59
2021/04/22 05:58:41;;;;;;;12.15;7.53;;;;;;;11.92;54.96;99836.51;366203;146;857360;-59
2021/04/22 05:59:43;;;;;;;11.02;8.14;;;;;;;11.95;55.41;99841.66;364529;146;856119;-59
2021/04/22 06:00:45;;;;;;;8.67;6.55;;;;;;;11.98;55.60;99837.25;364944;146;864406;-59
2021/04/22 06:01:48;;;;;;;8.89;6.51;;;;;;;11.99;55.25;99832.94;356849;149;856485;-59